Time;durP1;ratioP1;P1;durP2;ratioP2;P2;SDS_P1;SDS_P2;PMS_P1;PMS_P2;Temp;Humidity;BMP_temperature;BMP_pressure;BME280_temperature;BME280_humidity;BME280_pressure;Samples;Min_cycle;Max_cycle;Signal;HPM_P1;HPM_P2
2023/01/30 00:00:28;;;;;;;15.05;6.53;;;-1.80;99.90;;;;;;5085744;28;20055;-30
2023/01/30 00:02:53;;;;;;;9.63;6.85;;;-1.80;99.90;;;;;;5089188;28;20496;-29
2023/01/30 00:05:19;;;;;;;7.10;5.03;;;-1.80;99.90;;;;;;5086080;28;20453;-32
2023/01/30 00:07:46;;;;;;;7.65;4.65;;;-1.80;99.90;;;;;;5052942;28;20028;-29
2023/01/30 00:10:12;;;;;;;6.88;4.88;;;-1.80;99.90;;;;;;5088503;28;20035;-29
2023/01/30 00:12:38;;;;;;;5.40;4.10;;;-1.80;99.90;;;;;;5088464;28;20463;-31
2023/01/30 00:15:04;;;;;;;9.30;6.07;;;-1.80;99.90;;;;;;5072576;28;20541;-29
2023/01/30 00:17:30;;;;;;;5.32;4.82;;;-1.80;99.90;;;;;;5083634;28;20090;-33
2023/01/30 00:19:56;;;;;;;13.40;6.57;;;-1.80;99.90;;;;;;5092534;28;20473;-30
2023/01/30 00:22:21;;;;;;;11.60;7.22;;;-1.80;99.90;;;;;;5098128;28;20032;-31
2023/01/30 00:24:47;;;;;;;7.53;4.75;;;-1.80;99.90;;;;;;5073605;28;20028;-30
2023/01/30 00:27:12;;;;;;;7.40;6.32;;;-1.90;99.90;;;;;;5094327;28;20032;-32
2023/01/30 00:29:38;;;;;;;9.98;6.82;;;-1.90;99.90;;;;;;5093103;28;20020;-31
2023/01/30 00:32:04;;;;;;;6.32;4.93;;;-1.80;99.90;;;;;;5093904;28;20576;-31
2023/01/30 00:34:29;;;;;;;13.43;8.00;;;-1.90;99.90;;;;;;5092870;28;20473;-29
2023/01/30 00:36:55;;;;;;;7.43;5.15;;;-1.90;99.90;;;;;;5094451;28;20036;-30
2023/01/30 00:39:21;;;;;;;13.90;8.23;;;-1.90;99.90;;;;;;5096874;28;20495;-30
2023/01/30 00:47:15;;;;;;;8.77;6.10;;;-1.90;99.90;;;;;;5090932;28;20027;-30
2023/01/30 00:49:41;;;;;;;8.20;6.18;;;-1.90;99.90;;;;;;5097417;28;20469;-30
2023/01/30 00:52:07;;;;;;;18.05;8.65;;;-1.90;99.90;;;;;;5090295;28;20028;-30
2023/01/30 00:54:32;;;;;;;15.20;7.63;;;-1.80;99.90;;;;;;5091645;28;20028;-30
2023/01/30 00:56:58;;;;;;;14.20;7.50;;;-1.90;99.90;;;;;;5089693;28;20035;-32
2023/01/30 00:59:24;;;;;;;10.02;7.35;;;-1.80;99.90;;;;;;5096782;28;20056;-30
2023/01/30 01:01:50;;;;;;;11.38;7.30;;;-1.80;99.90;;;;;;5087673;28;20032;-33
2023/01/30 01:04:16;;;;;;;12.18;7.78;;;-1.90;99.90;;;;;;5099913;28;20016;-33
2023/01/30 01:06:41;;;;;;;5.97;4.82;;;-1.80;99.90;;;;;;5086481;28;20390;-30
2023/01/30 01:09:07;;;;;;;8.25;6.18;;;-1.80;99.90;;;;;;5074798;28;20089;-30
2023/01/30 01:11:33;;;;;;;12.13;7.05;;;-1.80;99.90;;;;;;5085564;28;20036;-29
2023/01/30 01:14:01;;;;;;;11.75;7.20;;;-1.80;99.90;;;;;;5082029;28;20066;-31
2023/01/30 01:16:28;;;;;;;14.15;8.18;;;-1.80;99.90;;;;;;5091253;28;20032;-31
2023/01/30 01:18:54;;;;;;;7.57;6.28;;;-1.80;99.90;;;;;;5095556;28;20035;-30
2023/01/30 01:21:20;;;;;;;13.13;8.18;;;-1.80;99.90;;;;;;5076034;28;20032;-29
2023/01/30 01:23:58;;;;;;;5.65;4.75;;;-1.80;99.90;;;;;;5081369;28;20024;-29
2023/01/30 01:26:23;;;;;;;12.95;7.38;;;-1.80;99.90;;;;;;5096855;28;20034;-29
2023/01/30 01:28:53;;;;;;;8.48;5.82;;;-1.80;99.90;;;;;;5097239;28;20032;-29
2023/01/30 01:31:19;;;;;;;11.05;7.15;;;-1.90;99.90;;;;;;5093114;28;20060;-35
2023/01/30 01:33:45;;;;;;;11.57;5.82;;;-1.90;99.90;;;;;;5069085;28;20024;-29
2023/01/30 01:36:10;;;;;;;11.77;4.93;;;-2.00;99.90;;;;;;5089719;28;20370;-30
2023/01/30 01:38:36;;;;;;;7.20;5.45;;;-2.00;99.90;;;;;;5092913;28;20039;-30
2023/01/30 01:41:02;;;;;;;12.30;7.68;;;-2.00;99.90;;;;;;5100813;28;20034;-30
2023/01/30 01:43:33;;;;;;;13.98;6.97;;;-2.00;99.90;;;;;;5096942;28;20557;-29
2023/01/30 01:46:23;;;;;;;14.88;10.05;;;-2.00;99.90;;;;;;5097597;28;20404;-31
2023/01/30 01:48:55;;;;;;;10.00;7.03;;;-1.90;99.90;;;;;;5085415;28;20095;-34
2023/01/30 01:51:41;;;;;;;12.40;7.38;;;-2.00;99.90;;;;;;5098740;28;20152;-30
2023/01/30 01:54:21;;;;;;;11.77;8.82;;;-2.00;99.90;;;;;;5093957;28;20051;-30
2023/01/30 01:56:48;;;;;;;15.05;8.02;;;-2.00;99.90;;;;;;5094579;28;20077;-29
2023/01/30 01:59:20;;;;;;;11.25;7.57;;;-1.90;99.90;;;;;;5094526;28;20092;-28
2023/01/30 02:01:47;;;;;;;10.88;5.93;;;-2.00;99.90;;;;;;5092791;28;20548;-38
2023/01/30 02:05:00;;;;;;;9.80;6.50;;;-2.00;99.90;;;;;;5072919;28;20021;-41
2023/01/30 02:06:59;;;;;;;15.57;8.23;;;-1.90;99.90;;;;;;5085736;28;20111;-38
2023/01/30 02:09:24;;;;;;;18.95;9.50;;;-1.90;99.90;;;;;;5091536;28;20111;-42
2023/01/30 02:11:55;;;;;;;6.10;4.55;;;-1.90;99.90;;;;;;5094608;28;20492;-35
2023/01/30 02:14:21;;;;;;;14.65;6.38;;;-1.90;99.90;;;;;;5091729;28;20036;-41
2023/01/30 02:16:47;;;;;;;13.63;6.22;;;-1.90;99.90;;;;;;5091446;28;20028;-41
2023/01/30 02:19:46;;;;;;;10.55;6.15;;;-1.90;99.90;;;;;;5091798;28;20032;-38
2023/01/30 02:22:21;;;;;;;;;;;-1.90;99.90;;;;;;5087076;28;20389;-38
2023/01/30 02:24:49;;;;;;;12.45;9.10;;;-1.90;99.90;;;;;;5094962;28;19908;-40
2023/01/30 02:27:23;;;;;;;8.73;4.10;;;-1.90;99.90;;;;;;5088907;28;20097;-40
2023/01/30 02:30:04;;;;;;;6.50;5.63;;;-1.90;99.90;;;;;;5094989;28;20400;-40
2023/01/30 02:32:53;;;;;;;9.77;6.15;;;-1.90;99.90;;;;;;5085552;28;20028;-38
2023/01/30 02:35:50;;;;;;;13.75;7.22;;;-1.90;99.90;;;;;;5087961;28;20530;-39
2023/01/30 02:38:38;;;;;;;11.85;8.27;;;-1.90;99.90;;;;;;5092101;28;20523;-41
2023/01/30 02:41:22;;;;;;;6.70;5.23;;;-1.90;99.90;;;;;;5091529;28;20383;-38
2023/01/30 02:43:57;;;;;;;8.82;5.47;;;-1.90;99.90;;;;;;5089470;28;20638;-39
2023/01/30 02:46:50;;;;;;;18.60;9.57;;;-1.90;99.90;;;;;;5087852;28;20016;-41
2023/01/30 02:49:27;;;;;;;11.20;6.47;;;-1.80;99.90;;;;;;5094156;28;20024;-39
2023/01/30 02:51:55;;;;;;;11.25;7.10;;;-1.90;99.90;;;;;;5091476;28;20036;-40
2023/01/30 02:54:20;;;;;;;7.15;6.07;;;-1.90;99.90;;;;;;5075384;28;20036;-40
2023/01/30 02:56:51;;;;;;;9.32;5.65;;;-1.90;99.90;;;;;;5091006;28;20388;-40
2023/01/30 02:59:40;;;;;;;10.60;7.38;;;-1.90;99.90;;;;;;5086159;28;20085;-40
2023/01/30 03:02:23;;;;;;;;;;;-1.90;99.90;;;;;;5085691;28;20040;-40
2023/01/30 03:05:16;;;;;;;8.13;4.93;;;-1.90;99.90;;;;;;5090974;28;19916;-41
2023/01/30 03:07:59;;;;;;;6.43;5.47;;;-1.90;99.90;;;;;;5087315;28;20060;-42
2023/01/30 03:10:41;;;;;;;5.68;5.13;;;-1.90;99.90;;;;;;5086703;28;20012;-41
2023/01/30 03:13:16;;;;;;;6.45;4.60;;;-1.90;99.90;;;;;;5087368;28;20028;-42
2023/01/30 03:15:49;;;;;;;17.17;9.27;;;-1.90;99.90;;;;;;5093225;28;20032;-39
2023/01/30 03:18:17;;;;;;;8.85;6.45;;;-1.90;99.90;;;;;;5087065;28;20094;-39
2023/01/30 03:20:43;;;;;;;5.57;4.35;;;-1.90;99.90;;;;;;5095152;28;20041;-41
2023/01/30 03:23:09;;;;;;;10.13;5.75;;;-2.00;99.90;;;;;;5089453;28;20031;-42
2023/01/30 03:25:37;;;;;;;11.30;8.13;;;-2.00;99.90;;;;;;5088953;28;20023;-41
2023/01/30 03:28:05;;;;;;;12.98;8.52;;;-2.00;99.90;;;;;;5087935;28;20024;-41
2023/01/30 03:30:31;;;;;;;10.52;7.55;;;-1.90;99.90;;;;;;5088521;28;20114;-41
2023/01/30 03:32:57;;;;;;;11.40;7.15;;;-1.90;99.90;;;;;;5090265;28;20024;-42
2023/01/30 03:35:23;;;;;;;20.70;10.80;;;-1.90;99.90;;;;;;5093822;28;20028;-41
2023/01/30 03:37:49;;;;;;;14.27;7.43;;;-1.90;99.90;;;;;;5092186;28;20046;-41
2023/01/30 03:40:16;;;;;;;6.97;5.20;;;-1.80;99.90;;;;;;5084980;28;20114;-35
2023/01/30 03:42:42;;;;;;;10.35;7.95;;;-1.80;99.90;;;;;;5083817;28;20043;-37
2023/01/30 03:45:09;;;;;;;12.13;7.45;;;-1.80;99.90;;;;;;5093534;28;20038;-38
2023/01/30 03:47:34;;;;;;;8.27;5.93;;;-1.80;99.90;;;;;;5091953;28;20028;-39
2023/01/30 03:50:00;;;;;;;6.28;5.35;;;-1.80;99.90;;;;;;5090982;28;20084;-41
2023/01/30 03:52:26;;;;;;;12.18;6.20;;;-1.80;99.90;;;;;;5094295;28;20048;-42
2023/01/30 03:54:51;;;;;;;13.77;6.78;;;-1.70;99.90;;;;;;5101246;28;20091;-42
2023/01/30 03:57:17;;;;;;;12.65;6.93;;;-1.80;99.90;;;;;;5087531;28;20085;-41
2023/01/30 03:59:42;;;;;;;19.33;11.40;;;-1.80;99.90;;;;;;5091450;28;20557;-42
2023/01/30 04:02:08;;;;;;;14.57;9.00;;;-1.80;99.90;;;;;;5099325;28;20063;-39
2023/01/30 04:04:34;;;;;;;22.00;10.30;;;-1.70;99.90;;;;;;5089972;28;20030;-40
2023/01/30 04:07:00;;;;;;;10.95;6.47;;;-1.70;99.90;;;;;;5091677;28;20109;-40
2023/01/30 04:09:25;;;;;;;6.97;5.93;;;-1.70;99.90;;;;;;5077136;28;20200;-38
2023/01/30 04:11:51;;;;;;;11.98;7.32;;;-1.70;99.90;;;;;;5088172;28;20040;-36
2023/01/30 04:14:17;;;;;;;14.57;9.15;;;-1.70;99.90;;;;;;5089152;28;20389;-41
2023/01/30 04:16:43;;;;;;;12.55;7.75;;;-1.70;99.90;;;;;;5077292;28;20439;-37
2023/01/30 04:19:08;;;;;;;18.33;9.57;;;-1.80;99.90;;;;;;5075418;28;20029;-42
2023/01/30 04:21:34;;;;;;;18.90;7.22;;;-1.80;99.90;;;;;;5079420;28;20033;-40
2023/01/30 04:23:59;;;;;;;5.82;3.95;;;-1.80;99.90;;;;;;5075899;28;20453;-41
2023/01/30 04:26:25;;;;;;;21.85;7.63;;;-1.80;99.90;;;;;;5078083;28;20027;-41
2023/01/30 04:28:51;;;;;;;13.65;7.75;;;-1.80;99.90;;;;;;5078442;28;20116;-40
2023/01/30 04:31:16;;;;;;;17.40;9.75;;;-1.80;99.90;;;;;;5065214;28;20115;-34
2023/01/30 04:33:42;;;;;;;6.22;5.45;;;-1.90;99.90;;;;;;5080623;28;20485;-38
2023/01/30 04:36:09;;;;;;;12.50;7.38;;;-1.90;99.90;;;;;;5063872;28;20047;-38
2023/01/30 04:38:35;;;;;;;8.57;6.97;;;-1.90;99.90;;;;;;5080058;28;20012;-39
2023/01/30 04:41:01;;;;;;;17.00;8.65;;;-1.90;99.90;;;;;;5078000;28;20377;-42
2023/01/30 04:43:28;;;;;;;17.85;8.65;;;-1.90;99.90;;;;;;5075862;28;20028;-40
2023/01/30 04:45:53;;;;;;;15.27;8.98;;;-1.90;99.90;;;;;;5075652;28;20550;-41
2023/01/30 04:48:21;;;;;;;11.52;7.47;;;-1.90;99.90;;;;;;5076885;28;20024;-41
2023/01/30 04:50:48;;;;;;;6.50;5.35;;;-1.90;99.90;;;;;;5076838;28;20730;-41
2023/01/30 04:53:14;;;;;;;9.98;7.45;;;-1.90;99.90;;;;;;5078354;28;20026;-40
2023/01/30 04:55:40;;;;;;;17.67;9.70;;;-1.90;99.90;;;;;;5075408;28;20033;-38
2023/01/30 04:58:05;;;;;;;11.13;7.15;;;-1.90;99.90;;;;;;5076194;28;20033;-36
2023/01/30 05:00:31;;;;;;;13.95;7.82;;;-1.90;99.90;;;;;;5077803;28;20037;-40
2023/01/30 05:02:57;;;;;;;7.18;4.63;;;-2.00;99.90;;;;;;5077460;28;20477;-35
2023/01/30 05:05:24;;;;;;;5.90;4.63;;;-2.00;99.90;;;;;;5077776;28;20039;-40
2023/01/30 05:07:50;;;;;;;10.60;6.40;;;-2.10;99.90;;;;;;5077426;28;20044;-40
2023/01/30 05:10:16;;;;;;;10.23;4.97;;;-2.10;99.90;;;;;;5076432;28;20027;-42
2023/01/30 05:12:42;;;;;;;10.00;7.00;;;-2.10;99.90;;;;;;5076180;28;20035;-41
2023/01/30 05:15:10;;;;;;;7.93;6.65;;;-2.00;99.90;;;;;;5057562;28;20568;-39
2023/01/30 05:17:36;;;;;;;16.42;10.10;;;-2.00;99.90;;;;;;5077530;28;20488;-40
2023/01/30 05:20:02;;;;;;;16.45;8.50;;;-1.90;99.90;;;;;;5076857;28;20028;-40
2023/01/30 05:22:28;;;;;;;18.75;10.35;;;-1.90;99.90;;;;;;5075464;28;20085;-40
2023/01/30 05:24:54;;;;;;;9.68;7.30;;;-1.80;99.90;;;;;;5078229;28;20113;-35
2023/01/30 05:27:19;;;;;;;6.57;5.88;;;-1.80;99.90;;;;;;5075529;28;20028;-38
2023/01/30 05:29:45;;;;;;;10.65;7.18;;;-1.80;99.90;;;;;;5076886;28;20028;-37
2023/01/30 05:32:15;;;;;;;7.43;5.40;;;-1.80;99.90;;;;;;5074804;28;20553;-38
2023/01/30 05:34:40;;;;;;;6.28;5.63;;;-1.70;99.90;;;;;;5079105;28;20036;-36
2023/01/30 05:37:06;;;;;;;16.25;8.95;;;-1.70;99.90;;;;;;5075670;28;20035;-39
2023/01/30 05:39:32;;;;;;;12.45;9.52;;;-1.70;99.90;;;;;;5077343;28;20408;-39
2023/01/30 05:41:57;;;;;;;10.02;7.40;;;-1.70;99.90;;;;;;5078697;28;20127;-41
2023/01/30 05:44:23;;;;;;;6.47;5.72;;;-1.60;99.90;;;;;;5074652;28;20025;-40
2023/01/30 05:46:49;;;;;;;7.22;6.43;;;-1.60;99.90;;;;;;5075209;28;20098;-41
2023/01/30 05:49:14;;;;;;;13.35;8.00;;;-1.60;99.90;;;;;;5073909;28;20420;-42
2023/01/30 05:51:40;;;;;;;15.63;8.27;;;-1.60;99.90;;;;;;5074947;28;20591;-37
2023/01/30 05:54:06;;;;;;;15.45;10.07;;;-1.50;99.90;;;;;;5077857;28;20375;-42
2023/01/30 05:56:32;;;;;;;10.70;6.32;;;-1.50;99.90;;;;;;5081227;28;20054;-40
2023/01/30 05:58:58;;;;;;;16.77;9.35;;;-1.60;99.90;;;;;;5082552;28;20020;-42
2023/01/30 06:01:25;;;;;;;20.40;10.00;;;-1.50;99.90;;;;;;5078502;28;20043;-41
2023/01/30 06:03:51;;;;;;;16.77;9.70;;;-1.50;99.90;;;;;;5074397;28;20028;-35
2023/01/30 06:06:17;;;;;;;15.45;9.35;;;-1.60;99.90;;;;;;5073042;28;20031;-36
2023/01/30 06:08:43;;;;;;;20.25;11.20;;;-1.50;99.90;;;;;;5044854;28;20048;-41
2023/01/30 06:11:11;;;;;;;15.60;7.35;;;-1.40;99.90;;;;;;5054815;28;20055;-42
2023/01/30 06:13:37;;;;;;;10.05;6.85;;;-1.40;99.90;;;;;;5055285;28;20029;-41
2023/01/30 06:16:04;;;;;;;19.30;9.85;;;-1.40;99.90;;;;;;5032233;28;20448;-35
2023/01/30 06:18:30;;;;;;;11.13;7.47;;;-1.40;99.90;;;;;;5058045;28;20283;-41
2023/01/30 06:20:56;;;;;;;20.60;11.50;;;-1.30;99.90;;;;;;5039628;28;20041;-42
2023/01/30 06:23:24;;;;;;;17.40;9.35;;;-1.30;99.90;;;;;;5062831;28;20055;-33
2023/01/30 06:25:52;;;;;;;20.52;11.80;;;-1.20;99.90;;;;;;5063483;28;20691;-42
2023/01/30 06:28:19;;;;;;;24.90;11.45;;;-1.20;99.90;;;;;;5064756;28;20451;-39
2023/01/30 06:30:45;;;;;;;18.67;10.93;;;-1.20;99.90;;;;;;5060745;28;20033;-39
2023/01/30 06:33:11;;;;;;;13.45;8.90;;;-1.20;99.90;;;;;;5061288;28;20035;-42
2023/01/30 06:35:37;;;;;;;7.15;4.20;;;-1.20;99.90;;;;;;5065173;28;20086;-40
2023/01/30 06:38:04;;;;;;;7.25;5.20;;;-1.20;99.90;;;;;;5064150;28;20043;-41
2023/01/30 06:40:29;;;;;;;6.40;5.65;;;-1.10;99.90;;;;;;5063566;28;20264;-42
2023/01/30 06:42:55;;;;;;;17.92;12.23;;;-1.20;99.90;;;;;;5065597;28;20074;-39
2023/01/30 06:45:21;;;;;;;15.50;9.35;;;-1.10;99.90;;;;;;5058621;28;20129;-36
2023/01/30 06:47:52;;;;;;;16.40;8.70;;;-1.10;99.90;;;;;;5060072;28;20035;-40
2023/01/30 06:50:19;;;;;;;21.40;11.57;;;-1.10;99.90;;;;;;5062114;28;20119;-42
2023/01/30 06:52:47;;;;;;;11.53;7.83;;;-1.10;99.90;;;;;;5062714;28;20036;-40
2023/01/30 06:55:18;;;;;;;17.58;10.02;;;-1.10;99.90;;;;;;5059235;28;20848;-41
2023/01/30 06:57:45;;;;;;;17.73;8.40;;;-1.10;99.90;;;;;;5066022;28;20119;-40
2023/01/30 07:00:18;;;;;;;14.93;8.60;;;-1.10;99.90;;;;;;5061579;28;20033;-40
2023/01/30 07:02:45;;;;;;;12.15;7.78;;;-1.10;99.90;;;;;;5063672;28;20041;-40
2023/01/30 07:05:11;;;;;;;13.70;7.50;;;-1.10;99.90;;;;;;5048778;28;20111;-39
2023/01/30 07:07:37;;;;;;;13.35;8.23;;;-1.10;99.90;;;;;;5060790;28;20033;-41
2023/01/30 07:10:06;;;;;;;15.82;9.10;;;-1.10;99.90;;;;;;5089922;28;20438;-37
2023/01/30 07:12:31;;;;;;;20.10;10.10;;;-1.10;99.90;;;;;;5089753;28;20042;-39
2023/01/30 07:14:57;;;;;;;12.10;7.25;;;-1.10;99.90;;;;;;5092890;28;20055;-36
2023/01/30 07:17:23;;;;;;;17.92;11.75;;;-1.10;99.90;;;;;;5082079;28;20027;-42
2023/01/30 07:19:49;;;;;;;27.33;13.70;;;-1.10;99.90;;;;;;5086328;28;20397;-39
2023/01/30 07:22:15;;;;;;;24.23;13.38;;;-1.10;99.90;;;;;;5093708;28;20036;-37
2023/01/30 07:24:41;;;;;;;13.10;6.95;;;-1.00;99.90;;;;;;5080935;28;20599;-41
2023/01/30 07:27:09;;;;;;;8.50;5.57;;;-1.00;99.90;;;;;;5070248;28;20053;-39
2023/01/30 07:29:35;;;;;;;16.45;9.25;;;-1.10;99.90;;;;;;5094066;28;20055;-39
2023/01/30 07:32:02;;;;;;;15.60;8.38;;;-1.00;99.90;;;;;;5093608;28;20270;-42
2023/01/30 07:34:28;;;;;;;14.48;7.43;;;-1.00;99.90;;;;;;5087620;28;20081;-39
2023/01/30 07:36:53;;;;;;;14.55;7.88;;;-0.90;99.90;;;;;;5089908;28;20079;-42
2023/01/30 07:39:19;;;;;;;20.05;11.55;;;-0.90;99.90;;;;;;5091054;28;20477;-40
2023/01/30 07:41:44;;;;;;;6.78;5.78;;;-0.90;99.90;;;;;;5094626;28;20085;-40
2023/01/30 07:44:11;;;;;;;9.77;6.80;;;-0.80;99.90;;;;;;5089931;28;20045;-39
2023/01/30 07:46:37;;;;;;;13.05;7.18;;;-0.80;99.90;;;;;;5090383;28;20051;-42
2023/01/30 07:49:07;;;;;;;12.13;8.48;;;-0.80;99.90;;;;;;5091398;28;20063;-41
2023/01/30 07:51:33;;;;;;;19.50;10.93;;;-0.80;99.90;;;;;;5086916;28;20031;-40
2023/01/30 07:54:00;;;;;;;11.18;6.40;;;-0.80;99.90;;;;;;5093366;28;20028;-41
2023/01/30 07:56:26;;;;;;;13.80;9.25;;;-0.90;99.90;;;;;;5086775;28;20465;-40
2023/01/30 07:58:53;;;;;;;8.57;5.68;;;-0.90;99.90;;;;;;5084532;28;20042;-36
2023/01/30 08:01:19;;;;;;;11.80;6.95;;;-0.80;99.90;;;;;;5084496;28;20028;-36
2023/01/30 08:03:45;;;;;;;17.13;8.63;;;-0.70;99.90;;;;;;5084650;28;20054;-42
2023/01/30 08:06:12;;;;;;;6.80;4.30;;;-0.70;99.90;;;;;;5095752;28;20021;-36
2023/01/30 08:08:38;;;;;;;12.93;6.75;;;-0.60;99.90;;;;;;5095943;28;20052;-41
2023/01/30 08:11:04;;;;;;;7.43;5.65;;;-0.60;99.90;;;;;;5089658;28;20541;-41
2023/01/30 08:13:30;;;;;;;13.30;7.07;;;-0.60;99.90;;;;;;5081676;28;20123;-41
2023/01/30 08:15:59;;;;;;;16.50;7.63;;;-0.50;99.90;;;;;;5087625;28;20040;-41
2023/01/30 08:18:24;;;;;;;14.52;7.60;;;-0.50;99.90;;;;;;5091011;28;20062;-42
2023/01/30 08:20:50;;;;;;;12.13;8.55;;;-0.50;99.90;;;;;;5090455;28;20445;-41
2023/01/30 08:23:15;;;;;;;11.55;7.43;;;-0.50;99.90;;;;;;5087958;28;20475;-42
2023/01/30 08:25:41;;;;;;;10.80;7.15;;;-0.40;99.90;;;;;;5086178;28;20029;-42
2023/01/30 08:28:07;;;;;;;11.27;6.60;;;-0.40;99.90;;;;;;5091322;28;20060;-42
2023/01/30 08:30:32;;;;;;;16.17;8.70;;;-0.40;99.90;;;;;;5084860;28;20412;-40
2023/01/30 08:32:58;;;;;;;15.07;7.15;;;-0.30;99.90;;;;;;5092809;28;20492;-41
2023/01/30 08:35:24;;;;;;;12.25;8.00;;;-0.30;99.90;;;;;;5085901;28;20109;-41
2023/01/30 08:37:49;;;;;;;13.13;8.13;;;-0.20;99.90;;;;;;5090998;28;20519;-42
2023/01/30 08:40:15;;;;;;;8.85;6.72;;;-0.10;99.90;;;;;;5094055;28;20028;-41
2023/01/30 08:42:44;;;;;;;10.52;7.47;;;0.00;99.90;;;;;;5078505;28;20028;-41
2023/01/30 08:45:10;;;;;;;8.77;6.20;;;0.00;99.90;;;;;;5091900;28;20063;-41
2023/01/30 08:47:36;;;;;;;11.70;7.63;;;0.10;99.90;;;;;;5090194;28;20043;-42
2023/01/30 08:50:02;;;;;;;9.65;6.10;;;0.20;99.90;;;;;;5079075;28;20016;-42
2023/01/30 08:52:28;;;;;;;21.85;12.77;;;0.20;99.90;;;;;;5097016;28;20227;-42
2023/01/30 08:54:54;;;;;;;13.27;7.15;;;0.20;99.90;;;;;;5096419;28;20036;-42
2023/01/30 08:57:19;;;;;;;8.27;6.22;;;0.20;99.90;;;;;;5080967;28;20085;-39
2023/01/30 08:59:45;;;;;;;12.85;8.23;;;0.20;99.90;;;;;;5094603;28;20085;-40
2023/01/30 09:02:11;;;;;;;15.73;8.18;;;0.20;99.90;;;;;;5087659;28;20123;-39
2023/01/30 09:04:37;;;;;;;11.90;6.70;;;0.30;99.90;;;;;;5092844;28;20059;-40
2023/01/30 09:07:03;;;;;;;15.48;8.30;;;0.20;99.90;;;;;;5088904;28;20024;-41
2023/01/30 09:09:29;;;;;;;14.25;9.20;;;0.30;99.90;;;;;;5086343;28;20531;-36
2023/01/30 09:11:55;;;;;;;17.30;10.18;;;0.30;99.90;;;;;;5096601;28;20044;-41
2023/01/30 09:14:20;;;;;;;10.15;5.82;;;0.40;99.90;;;;;;5092193;28;20416;-41
2023/01/30 09:16:47;;;;;;;16.17;10.35;;;0.70;99.90;;;;;;5091697;28;20028;-42
2023/01/30 09:19:13;;;;;;;18.48;10.35;;;0.70;99.90;;;;;;5100175;28;20051;-40
2023/01/30 09:21:38;;;;;;;16.17;9.98;;;0.70;99.90;;;;;;5090128;28;20059;-41
2023/01/30 09:24:05;;;;;;;13.52;7.93;;;0.70;99.90;;;;;;5094900;28;20027;-39
2023/01/30 09:26:30;;;;;;;10.32;6.25;;;0.70;99.90;;;;;;5086714;28;20448;-39
2023/01/30 09:28:57;;;;;;;9.68;6.10;;;0.70;99.90;;;;;;5088857;28;20107;-42
2023/01/30 09:31:23;;;;;;;10.70;7.20;;;0.90;99.90;;;;;;5094446;28;20088;-41
2023/01/30 09:33:48;;;;;;;10.27;6.53;;;1.00;99.90;;;;;;5091378;28;20043;-42
2023/01/30 09:36:14;;;;;;;13.90;8.50;;;1.00;99.90;;;;;;5089032;28;20054;-39
2023/01/30 09:38:39;;;;;;;13.75;8.30;;;1.10;99.90;;;;;;5086392;28;20020;-41
2023/01/30 09:41:34;;;;;;;8.75;5.97;;;1.00;99.90;;;;;;5085512;28;20053;-41
2023/01/30 09:44:17;;;;;;;8.27;5.55;;;1.30;99.90;;;;;;5083782;28;20558;-38
2023/01/30 09:47:10;;;;;;;13.65;9.07;;;1.30;99.90;;;;;;5092088;28;20111;-41
2023/01/30 09:49:55;;;;;;;12.13;6.75;;;1.50;99.90;;;;;;5103071;28;20032;-41
2023/01/30 09:52:51;;;;;;;10.50;6.93;;;1.50;99.90;;;;;;5096948;28;20487;-41
2023/01/30 09:55:23;;;;;;;10.10;6.63;;;1.40;99.90;;;;;;5091098;28;20035;-42
2023/01/30 09:57:50;;;;;;;7.90;5.57;;;1.40;99.90;;;;;;5096238;28;20043;-42
2023/01/30 10:00:32;;;;;;;9.75;6.20;;;1.40;99.90;;;;;;5091247;28;20470;-39
2023/01/30 10:03:10;;;;;;;7.30;4.47;;;1.50;99.90;;;;;;5078683;28;20055;-42
2023/01/30 10:05:47;;;;;;;12.70;10.02;;;1.50;99.90;;;;;;5089897;28;20081;-40
2023/01/30 10:08:34;;;;;;;11.93;7.25;;;1.50;99.90;;;;;;5095544;28;20127;-39
2023/01/30 10:11:42;;;;;;;10.30;6.90;;;1.50;99.90;;;;;;5076193;28;20033;-39
2023/01/30 10:14:46;;;;;;;7.07;4.93;;;1.60;99.90;;;;;;5090888;28;20039;-38
2023/01/30 10:17:26;;;;;;;9.38;6.63;;;1.70;99.90;;;;;;5093926;28;20027;-42
2023/01/30 10:20:13;;;;;;;6.30;4.32;;;1.80;99.90;;;;;;5087760;28;20039;-41
2023/01/30 10:22:58;;;;;;;8.57;5.20;;;1.80;99.90;;;;;;5087238;28;20232;-41
2023/01/30 10:25:26;;;;;;;10.02;6.10;;;1.80;99.90;;;;;;5071255;28;20409;-39
2023/01/30 10:28:19;;;;;;;6.93;5.68;;;1.80;99.90;;;;;;5094237;28;20024;-41
2023/01/30 10:30:50;;;;;;;11.82;6.47;;;1.90;99.90;;;;;;5092135;28;20048;-39
2023/01/30 10:33:27;;;;;;;11.15;6.97;;;2.00;99.90;;;;;;5095849;28;20019;-39
2023/01/30 10:36:02;;;;;;;10.30;5.93;;;2.20;99.90;;;;;;5094216;28;20521;-41
2023/01/30 10:38:36;;;;;;;12.27;6.90;;;2.40;99.90;;;;;;5098086;28;20112;-39
2023/01/30 10:41:15;;;;;;;14.38;10.35;;;2.70;99.90;;;;;;5090971;28;20036;-41
2023/01/30 10:43:46;;;;;;;;;;;2.70;99.90;;;;;;5092037;28;20385;-37
2023/01/30 10:46:45;;;;;;;14.95;8.73;;;2.70;99.90;;;;;;5095448;28;19908;-39
2023/01/30 10:49:17;;;;;;;12.98;7.65;;;2.80;99.90;;;;;;5036320;28;20036;-41
2023/01/30 10:52:11;;;;;;;9.57;6.32;;;3.00;99.90;;;;;;5095944;28;20020;-41
2023/01/30 10:55:00;;;;;;;13.25;7.78;;;3.00;99.90;;;;;;5094477;28;20024;-38
2023/01/30 10:57:57;;;;;;;11.18;8.27;;;3.00;99.90;;;;;;5093297;28;20089;-40
2023/01/30 11:00:49;;;;;;;9.75;6.03;;;2.90;99.90;;;;;;5075318;28;20127;-38
2023/01/30 11:03:20;;;;;;;12.75;9.30;;;3.00;99.90;;;;;;5070016;28;20028;-41
2023/01/30 11:05:58;;;;;;;13.70;9.45;;;2.80;99.90;;;;;;5086984;28;20031;-39
2023/01/30 11:08:34;;;;;;;11.40;8.00;;;2.70;99.90;;;;;;5092515;28;20052;-41
2023/01/30 11:11:00;;;;;;;17.27;10.07;;;2.60;99.90;;;;;;5090068;28;20032;-38
2023/01/30 11:13:32;;;;;;;13.13;7.60;;;2.50;99.90;;;;;;5090755;28;20024;-40
2023/01/30 11:16:03;;;;;;;14.20;8.88;;;2.40;99.90;;;;;;5093781;28;20414;-38
2023/01/30 11:18:29;;;;;;;10.80;7.13;;;2.30;99.90;;;;;;5087504;28;20109;-41
2023/01/30 11:21:05;;;;;;;14.13;9.20;;;2.30;99.90;;;;;;5086358;28;20085;-39
2023/01/30 11:23:34;;;;;;;8.38;6.03;;;2.30;99.90;;;;;;5086244;28;20167;-41
2023/01/30 11:26:02;;;;;;;12.98;7.78;;;2.30;99.90;;;;;;5085927;28;20028;-40
2023/01/30 11:28:43;;;;;;;15.40;10.07;;;2.20;99.90;;;;;;5091878;28;20032;-38
2023/01/30 11:31:20;;;;;;;15.23;9.75;;;2.20;99.90;;;;;;5089849;28;20402;-42
2023/01/30 11:33:59;;;;;;;15.32;10.38;;;2.20;99.90;;;;;;5088088;28;20492;-40
2023/01/30 11:36:29;;;;;;;15.95;10.95;;;2.20;99.90;;;;;;5090494;28;20031;-42
2023/01/30 11:39:16;;;;;;;16.48;10.88;;;2.20;99.90;;;;;;5091056;28;20040;-42
2023/01/30 11:41:55;;;;;;;15.75;8.68;;;2.20;99.90;;;;;;5092103;28;20591;-42
2023/01/30 11:44:28;;;;;;;13.77;8.07;;;2.30;99.90;;;;;;5090196;28;20412;-39
2023/01/30 11:46:58;;;;;;;16.83;11.20;;;2.30;99.90;;;;;;5084306;28;20028;-41
2023/01/30 11:49:31;;;;;;;14.20;10.07;;;2.30;99.90;;;;;;5094089;28;20032;-40
2023/01/30 11:51:58;;;;;;;13.63;7.65;;;2.30;99.90;;;;;;5094362;28;20066;-42
2023/01/30 11:54:40;;;;;;;10.43;6.95;;;2.30;99.90;;;;;;5092020;28;20083;-42
2023/01/30 11:57:13;;;;;;;14.40;8.35;;;2.30;99.90;;;;;;5090419;28;20557;-41
2023/01/30 11:59:52;;;;;;;16.27;11.32;;;2.40;99.90;;;;;;5094532;28;20020;-41
2023/01/30 12:02:33;;;;;;;16.05;10.30;;;2.30;99.90;;;;;;5092379;28;20074;-42
2023/01/30 12:05:01;;;;;;;7.50;6.20;;;2.30;99.90;;;;;;5091855;28;20028;-39
2023/01/30 12:07:28;;;;;;;;;;;2.30;99.90;;;;;;5096896;28;20032;-41
2023/01/30 12:09:55;;;;;;;16.48;9.68;;;2.40;99.90;;;;;;5088631;28;19951;-40
2023/01/30 12:12:30;;;;;;;11.95;7.35;;;2.30;99.90;;;;;;5092036;28;20044;-41
2023/01/30 12:15:09;;;;;;;15.10;9.43;;;2.30;99.90;;;;;;5095143;28;20027;-39
2023/01/30 12:18:09;;;;;;;13.70;8.48;;;2.30;99.90;;;;;;5096662;28;20081;-42
2023/01/30 12:20:48;;;;;;;12.73;9.07;;;2.30;99.90;;;;;;5095271;28;20468;-32
2023/01/30 12:23:23;;;;;;;15.20;8.57;;;2.30;99.90;;;;;;5099658;28;20851;-31
2023/01/30 12:26:06;;;;;;;13.15;7.35;;;2.30;99.90;;;;;;5088836;28;20389;-31
2023/01/30 12:29:01;;;;;;;15.13;9.07;;;2.40;99.90;;;;;;5074846;28;20028;-30
2023/01/30 12:31:42;;;;;;;14.63;8.82;;;2.30;99.90;;;;;;5095192;28;20036;-30
2023/01/30 12:34:09;;;;;;;16.77;9.93;;;2.40;99.90;;;;;;5093091;28;20036;-31
2023/01/30 12:36:58;;;;;;;10.48;5.90;;;2.40;99.90;;;;;;5101418;28;20496;-33
2023/01/30 12:39:52;;;;;;;11.68;7.50;;;2.40;99.90;;;;;;5091494;28;20054;-31
2023/01/30 12:42:46;;;;;;;11.88;6.95;;;2.60;99.90;;;;;;5092883;28;20043;-33
2023/01/30 12:45:22;;;;;;;13.88;9.35;;;2.70;99.90;;;;;;5094539;28;20032;-30
2023/01/30 12:48:00;;;;;;;11.68;6.55;;;2.90;99.90;;;;;;5083528;28;20381;-31
2023/01/30 12:50:51;;;;;;;14.10;8.93;;;2.80;99.90;;;;;;5093470;28;20035;-31
2023/01/30 12:53:45;;;;;;;10.98;7.88;;;2.80;99.90;;;;;;5092750;28;20397;-31
2023/01/30 12:56:25;;;;;;;12.82;8.15;;;2.70;99.90;;;;;;5080179;28;20025;-31
2023/01/30 12:59:13;;;;;;;11.95;7.72;;;2.70;99.90;;;;;;5096620;28;20060;-30
2023/01/30 13:02:08;;;;;;;13.25;8.43;;;2.80;99.90;;;;;;5086163;28;20036;-30
2023/01/30 13:04:53;;;;;;;11.32;8.77;;;2.90;99.90;;;;;;5096632;28;20093;-31
2023/01/30 13:07:43;;;;;;;12.50;9.02;;;2.80;99.90;;;;;;5067014;28;20081;-29